Time;durP1;ratioP1;P1;durP2;ratioP2;P2;SDS_P1;SDS_P2;PMS_P1;PMS_P2;Temp;Humidity;BMP_temperature;BMP_pressure;BME280_temperature;BME280_humidity;BME280_pressure;Samples;Min_cycle;Max_cycle;Signal;HPM_P1;HPM_P2
2021/09/09 00:01:37;;;;;;;20.98;14.75;;;;;;;20.03;62.29;101042.16;4972871;28;20391;-63
2021/09/09 00:04:06;;;;;;;21.25;14.85;;;;;;;20.02;62.42;101035.00;4956154;28;20057;-63
2021/09/09 00:06:34;;;;;;;21.27;14.95;;;;;;;19.98;62.57;101036.78;4972938;28;20047;-63
2021/09/09 00:09:02;;;;;;;20.52;14.55;;;;;;;19.97;62.86;101027.69;4971806;28;20055;-63
2021/09/09 00:11:31;;;;;;;23.75;16.08;;;;;;;20.02;62.57;101023.13;4972882;28;20047;-63
2021/09/09 00:13:58;;;;;;;20.63;15.93;;;;;;;20.03;62.88;101025.56;4971342;28;20520;-63
2021/09/09 00:16:27;;;;;;;22.73;14.40;;;;;;;20.08;62.33;101017.06;4973073;28;20046;-62
2021/09/09 00:18:56;;;;;;;22.25;14.95;;;;;;;20.09;62.21;101012.38;4973049;28;20138;-62
2021/09/09 00:21:24;;;;;;;22.50;15.35;;;;;;;20.03;62.21;101008.97;4972703;28;20039;-62
2021/09/09 00:23:51;;;;;;;24.17;15.00;;;;;;;19.97;62.30;101002.78;4973155;28;20065;-61
2021/09/09 00:26:22;;;;;;;24.00;14.43;;;;;;;19.93;62.58;101007.34;4972465;28;20050;-62
2021/09/09 00:28:55;;;;;;;23.70;15.63;;;;;;;19.89;62.48;100997.25;4971184;28;20053;-63
2021/09/09 00:31:23;;;;;;;21.33;14.80;;;;;;;19.87;62.58;100996.78;4972678;28;20089;-63
2021/09/09 00:33:51;;;;;;;20.95;14.88;;;;;;;19.84;62.70;100994.66;4972652;28;20050;-63
2021/09/09 00:36:19;;;;;;;25.13;14.80;;;;;;;19.83;62.61;100993.03;4971517;28;20039;-62
2021/09/09 00:38:46;;;;;;;21.05;14.73;;;;;;;19.81;62.57;100993.38;4975398;28;20039;-62
2021/09/09 00:41:14;;;;;;;19.50;14.15;;;;;;;19.78;62.51;100991.25;4976272;28;20078;-63
2021/09/09 00:43:42;;;;;;;21.67;14.77;;;;;;;19.77;62.64;100990.47;4976306;28;20077;-62
2021/09/09 00:46:09;;;;;;;20.85;13.80;;;;;;;19.78;62.52;100981.00;4976692;28;20047;-63
2021/09/09 00:48:38;;;;;;;19.67;14.75;;;;;;;19.77;62.61;100984.94;4976516;28;20477;-63
2021/09/09 00:51:05;;;;;;;19.13;14.70;;;;;;;19.77;62.29;100989.63;4975337;28;20047;-63
2021/09/09 00:53:34;;;;;;;19.65;14.57;;;;;;;19.76;62.57;100980.53;4976373;28;20055;-62
2021/09/09 00:56:01;;;;;;;20.52;14.63;;;;;;;19.79;62.18;100981.81;4974773;28;20043;-62
2021/09/09 00:58:29;;;;;;;22.42;15.13;;;;;;;19.76;62.41;100982.47;4974780;28;20035;-62
2021/09/09 01:00:57;;;;;;;19.73;14.43;;;;;;;19.76;62.13;100982.47;4976091;28;20625;-62
2021/09/09 01:03:24;;;;;;;21.60;15.23;;;;;;;19.77;62.42;100973.88;4975118;28;20047;-63
2021/09/09 01:05:52;;;;;;;19.08;15.02;;;;;;;19.80;62.13;100975.16;4976539;28;20053;-62
2021/09/09 01:08:20;;;;;;;20.95;15.48;;;;;;;19.79;62.18;100970.75;4974816;28;20031;-62
2021/09/09 01:10:48;;;;;;;21.42;15.30;;;;;;;19.74;62.02;100974.50;4976143;28;20058;-62
2021/09/09 01:13:15;;;;;;;21.48;15.82;;;;;;;19.72;62.11;100962.13;4974537;28;20074;-63
2021/09/09 01:15:44;;;;;;;29.38;16.00;;;;;;;19.69;62.25;100965.56;4976201;28;20039;-61
2021/09/09 01:18:13;;;;;;;24.30;15.35;;;;;;;19.66;62.20;100972.53;4976194;28;20058;-62
2021/09/09 01:20:41;;;;;;;20.08;14.50;;;;;;;19.67;62.57;100965.03;4991000;28;20050;-62
2021/09/09 01:23:09;;;;;;;21.88;14.95;;;;;;;19.69;62.15;100960.84;4975571;28;20117;-62
2021/09/09 01:25:37;;;;;;;20.48;14.55;;;;;;;19.69;62.44;100960.84;4975710;28;20402;-62
2021/09/09 01:28:05;;;;;;;22.48;15.30;;;;;;;19.68;62.17;100952.91;4975493;28;20043;-62
2021/09/09 01:30:32;;;;;;;19.58;15.00;;;;;;;19.63;62.04;100950.28;4976069;28;20094;-62
2021/09/09 01:33:03;;;;;;;20.95;15.35;;;;;;;19.51;62.51;100950.91;4975847;28;20047;-58
2021/09/09 01:35:30;;;;;;;19.70;15.63;;;;;;;19.45;62.91;100955.78;4974429;28;20059;-62
2021/09/09 01:37:58;;;;;;;20.20;15.25;;;;;;;19.45;62.90;100960.50;4974299;28;20080;-62
2021/09/09 01:40:30;;;;;;;22.65;16.23;;;;;;;19.46;62.88;100951.91;4975237;28;20042;-62
2021/09/09 01:42:58;;;;;;;22.83;14.90;;;;;;;19.46;62.66;100946.38;4975189;28;20050;-62
2021/09/09 01:45:26;;;;;;;20.50;15.80;;;;;;;19.45;62.96;100946.69;4974339;28;20157;-62
2021/09/09 01:47:54;;;;;;;21.02;15.23;;;;;;;19.44;62.57;100943.09;4974477;28;20035;-62
2021/09/09 01:50:22;;;;;;;22.25;15.35;;;;;;;19.39;62.76;100948.81;4973686;28;20133;-61
2021/09/09 01:52:49;;;;;;;20.90;15.55;;;;;;;19.34;62.99;100944.25;4975576;28;20129;-62
2021/09/09 01:55:17;;;;;;;20.63;16.38;;;;;;;19.31;63.24;100944.06;4974750;28;20050;-62
2021/09/09 01:57:44;;;;;;;21.85;15.20;;;;;;;19.27;63.43;100943.09;4974433;28;20405;-62
2021/09/09 02:00:13;;;;;;;20.73;15.32;;;;;;;19.30;63.40;100936.94;4975569;28;20035;-61
2021/09/09 02:02:41;;;;;;;23.42;15.85;;;;;;;19.36;62.96;100935.63;4973939;28;20441;-62
2021/09/09 02:05:11;;;;;;;20.48;15.68;;;;;;;19.31;63.23;100925.56;4975103;28;20039;-62
2021/09/09 02:07:39;;;;;;;19.60;15.55;;;;;;;19.26;63.27;100935.94;4975175;28;20034;-59
2021/09/09 02:10:08;;;;;;;23.88;15.95;;;;;;;19.23;63.62;100933.84;4974818;28;20615;-62
2021/09/09 02:12:37;;;;;;;20.75;15.68;;;;;;;19.21;63.62;100934.16;4973938;28;20409;-62
2021/09/09 02:15:05;;;;;;;22.58;15.95;;;;;;;19.26;63.53;100930.41;4975045;28;20516;-62
2021/09/09 02:17:32;;;;;;;20.83;14.60;;;;;;;19.30;63.47;100937.72;4975386;28;20395;-62
2021/09/09 02:20:00;;;;;;;22.95;15.32;;;;;;;19.32;63.30;100946.50;4977835;28;20490;-63
2021/09/09 02:22:27;;;;;;;21.60;15.07;;;;;;;19.34;63.27;100954.50;4980646;28;20039;-63
2021/09/09 02:24:55;;;;;;;20.05;16.30;;;;;;;19.33;63.21;100953.66;4998318;28;20031;-62
2021/09/09 02:27:22;;;;;;;22.33;15.73;;;;;;;19.29;62.88;100946.34;4995653;28;20043;-61
2021/09/09 02:29:50;;;;;;;21.90;15.20;;;;;;;19.24;63.35;100947.34;4997353;28;20128;-62
2021/09/09 02:32:18;;;;;;;22.23;15.57;;;;;;;19.25;63.42;100953.66;4997063;28;20511;-62
2021/09/09 02:34:45;;;;;;;20.35;15.68;;;;;;;19.23;63.47;100948.44;4996762;28;20093;-62
2021/09/09 02:37:13;;;;;;;20.13;15.35;;;;;;;19.22;63.52;100957.06;4994151;28;20077;-62
2021/09/09 02:39:44;;;;;;;20.25;15.70;;;;;;;19.19;63.52;100954.94;4993624;28;20038;-61
2021/09/09 02:42:11;;;;;;;21.70;15.88;;;;;;;19.15;63.60;100946.50;4997077;28;20038;-63
2021/09/09 02:44:39;;;;;;;19.10;15.45;;;;;;;19.10;63.88;100953.00;4997481;28;20061;-61
2021/09/09 02:47:07;;;;;;;20.90;15.68;;;;;;;19.07;63.86;100947.28;4995993;28;20064;-61
2021/09/09 02:49:35;;;;;;;22.13;15.70;;;;;;;19.03;64.10;100947.13;4993694;28;20057;-62
2021/09/09 02:52:02;;;;;;;26.60;15.73;;;;;;;19.03;64.05;100944.38;4993547;28;20041;-62
2021/09/09 02:54:30;;;;;;;22.45;16.80;;;;;;;19.03;64.19;100936.09;4979497;28;20482;-62
2021/09/09 02:56:58;;;;;;;21.92;15.70;;;;;;;18.97;64.20;100940.13;4993648;28;20068;-61
2021/09/09 02:59:25;;;;;;;21.90;16.40;;;;;;;18.91;64.53;100933.16;4993551;28;20038;-61
2021/09/09 03:01:53;;;;;;;21.90;15.50;;;;;;;18.90;64.71;100928.75;4991380;28;20045;-62
2021/09/09 03:04:21;;;;;;;23.17;16.02;;;;;;;18.90;64.63;100934.25;4993695;28;20125;-62
2021/09/09 03:06:48;;;;;;;22.23;15.80;;;;;;;18.90;64.71;100931.50;4993298;28;20044;-64
2021/09/09 03:09:16;;;;;;;21.92;16.00;;;;;;;18.91;64.61;100935.91;4993343;28;20073;-64
2021/09/09 03:11:44;;;;;;;23.25;16.10;;;;;;;18.92;64.45;100926.47;4993462;28;20049;-64
2021/09/09 03:14:11;;;;;;;24.38;15.93;;;;;;;18.84;64.73;100919.81;4993415;28;20038;-64
2021/09/09 03:16:39;;;;;;;24.35;15.18;;;;;;;18.82;65.16;100921.25;4993200;28;20535;-60
2021/09/09 03:19:06;;;;;;;24.08;16.27;;;;;;;18.86;64.70;100927.78;4993281;28;20041;-61
2021/09/09 03:21:34;;;;;;;21.88;16.27;;;;;;;18.82;64.74;100932.31;4993019;28;20040;-62
2021/09/09 03:24:02;;;;;;;20.60;15.70;;;;;;;18.76;65.06;100925.25;4965806;28;20370;-61
2021/09/09 03:26:29;;;;;;;22.00;15.80;;;;;;;18.73;65.20;100918.44;4993041;28;20038;-62
2021/09/09 03:28:57;;;;;;;22.80;16.58;;;;;;;18.66;65.25;100921.66;4993105;28;20030;-62
2021/09/09 03:31:24;;;;;;;22.75;16.33;;;;;;;18.63;65.45;100919.56;4992665;28;20054;-60
2021/09/09 03:33:52;;;;;;;20.48;16.02;;;;;;;18.57;65.60;100920.84;4992783;28;20505;-62
2021/09/09 03:36:20;;;;;;;21.10;15.80;;;;;;;18.57;65.83;100914.50;4992802;28;20046;-62
2021/09/09 03:38:47;;;;;;;19.55;15.60;;;;;;;18.52;65.74;100916.28;4992248;28;20043;-62
2021/09/09 03:41:15;;;;;;;22.00;15.75;;;;;;;18.54;65.95;100904.91;4993025;28;20129;-61
2021/09/09 03:43:43;;;;;;;23.08;16.20;;;;;;;18.52;66.00;100905.25;4992978;28;20066;-63
2021/09/09 03:46:10;;;;;;;21.42;16.42;;;;;;;18.50;65.93;100912.22;4992836;28;20504;-62
2021/09/09 03:48:38;;;;;;;25.48;17.55;;;;;;;18.48;65.97;100908.97;4993013;28;20077;-62
2021/09/09 03:51:05;;;;;;;22.10;15.63;;;;;;;18.48;65.96;100908.97;4992484;28;20493;-64
2021/09/09 03:53:33;;;;;;;20.15;15.52;;;;;;;18.44;66.14;100902.44;4992117;28;20089;-62
2021/09/09 03:56:00;;;;;;;21.75;15.95;;;;;;;18.44;66.20;100899.69;4992377;28;20038;-62
2021/09/09 03:58:28;;;;;;;21.75;15.10;;;;;;;18.48;66.13;100903.44;4992591;28;20047;-63
2021/09/09 04:00:56;;;;;;;22.10;16.00;;;;;;;18.52;65.91;100905.25;4992270;28;20056;-62
2021/09/09 04:03:23;;;;;;;22.10;16.67;;;;;;;18.53;65.92;100901.34;4992730;28;20069;-62
2021/09/09 04:05:51;;;;;;;22.85;16.05;;;;;;;18.55;65.84;100898.28;4991827;28;20502;-60
2021/09/09 04:08:19;;;;;;;20.50;15.25;;;;;;;18.53;65.90;100904.09;4992215;28;20041;-63
2021/09/09 04:10:46;;;;;;;23.13;15.93;;;;;;;18.57;65.77;100898.78;4992454;28;20057;-63
2021/09/09 04:13:14;;;;;;;23.88;16.10;;;;;;;18.61;65.54;100893.41;4992000;28;20038;-63
2021/09/09 04:15:41;;;;;;;22.45;15.65;;;;;;;18.62;65.50;100900.56;4992383;28;20070;-63
2021/09/09 04:18:09;;;;;;;20.35;15.02;;;;;;;18.63;65.57;100902.19;4992427;28;20089;-62
2021/09/09 04:20:37;;;;;;;21.65;15.55;;;;;;;18.62;65.44;100900.56;4990619;28;20046;-63
2021/09/09 04:23:04;;;;;;;18.17;14.68;;;;;;;18.63;65.46;100896.66;4990853;28;20064;-61
2021/09/09 04:25:32;;;;;;;22.08;16.13;;;;;;;18.64;65.37;100899.13;4990927;28;20130;-62
2021/09/09 04:28:00;;;;;;;23.27;15.45;;;;;;;18.65;65.26;100902.69;4992517;28;20528;-63
2021/09/09 04:30:27;;;;;;;25.77;16.70;;;;;;;18.63;65.33;100903.00;4992130;28;20065;-62
2021/09/09 04:32:55;;;;;;;21.27;16.40;;;;;;;18.58;65.39;100897.63;4992257;28;20520;-63
2021/09/09 04:35:22;;;;;;;21.05;14.70;;;;;;;18.55;65.79;100897.47;4991533;28;20561;-62
2021/09/09 04:37:50;;;;;;;23.00;16.63;;;;;;;18.55;65.86;100898.28;4992086;28;20050;-63
2021/09/09 04:40:17;;;;;;;22.20;15.85;;;;;;;18.58;65.70;100894.06;4991990;28;20045;-62
2021/09/09 04:42:45;;;;;;;23.80;15.80;;;;;;;18.53;65.96;100895.00;4992115;28;20049;-63
2021/09/09 04:45:13;;;;;;;20.23;15.68;;;;;;;18.53;65.87;100893.06;4980521;28;20603;-62
2021/09/09 04:47:40;;;;;;;24.75;17.23;;;;;;;18.53;65.77;100889.50;4971052;28;20049;-62
2021/09/09 04:50:09;;;;;;;23.20;16.95;;;;;;;18.52;65.84;100887.88;4972464;28;20051;-62
2021/09/09 04:52:38;;;;;;;24.95;16.30;;;;;;;18.48;66.16;100895.16;4972744;28;20050;-61
2021/09/09 04:55:06;;;;;;;23.77;16.73;;;;;;;18.46;66.07;100891.91;4972778;28;20093;-62
2021/09/09 04:57:33;;;;;;;20.90;16.27;;;;;;;18.43;66.24;100879.56;4972117;28;20073;-61
2021/09/09 05:00:01;;;;;;;23.38;16.48;;;;;;;18.38;66.41;100887.19;4970632;28;20429;-62
2021/09/09 05:02:30;;;;;;;23.73;17.02;;;;;;;18.33;66.74;100884.53;4970532;28;20453;-61
2021/09/09 05:04:58;;;;;;;23.92;16.52;;;;;;;18.29;67.07;100882.44;4961555;28;20089;-63
2021/09/09 05:07:25;;;;;;;24.52;16.65;;;;;;;18.28;66.89;100877.25;4972210;28;20490;-62
2021/09/09 05:09:53;;;;;;;22.45;15.98;;;;;;;18.22;67.12;100873.00;4971822;28;20094;-62
2021/09/09 05:12:21;;;;;;;23.52;16.10;;;;;;;18.23;67.12;100878.22;4971282;28;20050;-62
2021/09/09 05:14:48;;;;;;;23.88;17.88;;;;;;;18.24;67.15;100882.56;4972288;28;20062;-62
2021/09/09 05:17:16;;;;;;;23.30;17.27;;;;;;;18.26;67.19;100874.81;4972037;28;20052;-62
2021/09/09 05:19:43;;;;;;;23.75;16.30;;;;;;;18.30;67.05;100877.72;4970366;28;20060;-61
2021/09/09 05:22:11;;;;;;;24.70;17.27;;;;;;;18.33;66.99;100870.75;4961752;28;20427;-60
2021/09/09 05:24:38;;;;;;;23.35;16.55;;;;;;;18.33;66.81;100873.50;4973934;28;20038;-62
2021/09/09 05:27:06;;;;;;;24.45;17.13;;;;;;;18.33;66.92;100879.03;4975437;28;20066;-60
2021/09/09 05:29:34;;;;;;;25.38;16.25;;;;;;;18.25;67.08;100873.16;4975134;28;20055;-62
2021/09/09 05:32:01;;;;;;;23.25;16.52;;;;;;;18.21;67.39;100866.69;5004516;28;20049;-65
2021/09/09 05:34:29;;;;;;;27.35;17.40;;;;;;;18.22;67.33;100871.03;4995195;28;20458;-60
2021/09/09 05:36:57;;;;;;;19.85;15.75;;;;;;;18.23;67.43;100867.19;4995144;28;20038;-62
2021/09/09 05:39:24;;;;;;;21.80;16.23;;;;;;;18.22;67.64;100871.03;4994521;28;20050;-62
2021/09/09 05:41:52;;;;;;;26.30;16.83;;;;;;;18.25;67.59;100875.91;4994978;28;20050;-63
2021/09/09 05:44:19;;;;;;;22.42;17.10;;;;;;;18.28;67.25;100874.50;4997057;28;20405;-63
2021/09/09 05:46:48;;;;;;;30.05;17.98;;;;;;;18.33;67.13;100870.75;4996785;28;20779;-63
2021/09/09 05:49:15;;;;;;;23.02;16.30;;;;;;;18.34;67.13;100864.13;4995929;28;20038;-63
2021/09/09 05:51:43;;;;;;;22.60;16.25;;;;;;;18.36;67.01;100859.91;4995414;28;20046;-60
2021/09/09 05:54:11;;;;;;;21.15;16.33;;;;;;;18.36;67.04;100865.44;4996111;28;20046;-59
2021/09/09 05:56:38;;;;;;;22.52;16.30;;;;;;;18.37;67.10;100866.22;4994986;28;20053;-60
2021/09/09 05:59:06;;;;;;;25.40;16.13;;;;;;;18.38;67.22;100856.84;4984365;28;20042;-60
2021/09/09 06:01:35;;;;;;;22.90;15.32;;;;;;;18.43;67.11;100862.22;4994152;28;20055;-59
2021/09/09 06:04:05;;;;;;;23.65;15.55;;;;;;;18.46;66.85;100858.78;4994311;28;20413;-62
2021/09/09 06:06:32;;;;;;;21.55;16.33;;;;;;;18.49;66.81;100852.63;4992798;28;20058;-61
2021/09/09 06:09:01;;;;;;;24.88;16.83;;;;;;;18.50;66.66;100848.75;4994389;28;20039;-60
2021/09/09 06:11:28;;;;;;;23.65;16.67;;;;;;;18.46;66.92;100858.78;4994566;28;20473;-61
2021/09/09 06:13:56;;;;;;;22.83;15.70;;;;;;;18.41;67.17;100854.25;4994364;28;20066;-61
2021/09/09 06:16:23;;;;;;;26.38;18.42;;;;;;;18.43;67.36;100848.41;4993381;28;20145;-60
2021/09/09 06:18:51;;;;;;;27.98;19.30;;;;;;;18.48;67.05;100845.50;4994164;28;20048;-61
2021/09/09 06:21:19;;;;;;;25.20;18.40;;;;;;;18.54;67.09;100849.72;4993737;28;20042;-61
2021/09/09 06:23:47;;;;;;;26.95;20.77;;;;;;;18.56;66.94;100850.22;4994296;28;20468;-58
2021/09/09 06:26:18;;;;;;;29.45;21.23;;;;;;;18.58;66.83;100847.94;4992657;28;20046;-54
2021/09/09 06:28:46;;;;;;;28.80;21.88;;;;;;;18.61;67.14;100854.78;4991830;28;20494;-57
2021/09/09 06:31:14;;;;;;;25.10;17.60;;;;;;;18.63;66.96;100864.34;4993204;28;20085;-57
2021/09/09 06:33:42;;;;;;;28.00;17.98;;;;;;;18.64;66.95;100860.47;4993842;28;20125;-57
2021/09/09 06:36:10;;;;;;;24.08;18.88;;;;;;;18.66;66.67;100869.22;4993739;28;20027;-58
2021/09/09 06:38:37;;;;;;;26.58;20.98;;;;;;;18.70;66.26;100870.22;4993862;28;20046;-56
2021/09/09 06:41:05;;;;;;;27.77;19.25;;;;;;;18.72;66.54;100889.22;4992420;28;20042;-58
2021/09/09 06:43:32;;;;;;;28.70;18.77;;;;;;;18.71;66.23;100888.41;4992312;28;20069;-61
2021/09/09 06:46:00;;;;;;;29.42;17.20;;;;;;;18.72;66.61;100878.19;4993228;28;20043;-62
2021/09/09 06:48:28;;;;;;;21.17;16.20;;;;;;;18.71;66.29;100873.78;4993991;28;20388;-61
2021/09/09 06:50:56;;;;;;;23.40;18.58;;;;;;;18.73;66.39;100886.13;4993395;28;20054;-59
2021/09/09 06:53:24;;;;;;;25.92;19.48;;;;;;;18.76;66.41;100887.50;4993505;28;20044;-59
2021/09/09 06:55:51;;;;;;;25.83;18.17;;;;;;;18.81;66.35;100873.53;4993036;28;20048;-60
2021/09/09 06:58:19;;;;;;;27.92;18.20;;;;;;;18.82;66.56;100890.91;4988577;28;20046;-60
2021/09/09 07:00:47;;;;;;;28.10;17.77;;;;;;;18.81;66.62;100880.97;4985698;28;20069;-60
2021/09/09 07:03:14;;;;;;;28.85;16.92;;;;;;;18.83;66.69;100864.91;4993002;28;20121;-57
2021/09/09 07:05:43;;;;;;;21.15;15.13;;;;;;;18.88;66.66;100875.78;4993527;28;20121;-60
2021/09/09 07:08:10;;;;;;;33.65;18.75;;;;;;;18.91;66.64;100877.91;4993010;28;20501;-60
2021/09/09 07:10:39;;;;;;;21.27;14.95;;;;;;;18.92;66.67;100876.78;4993609;28;20093;-61
2021/09/09 07:13:06;;;;;;;26.63;18.85;;;;;;;18.94;66.66;100882.78;4982322;28;20050;-56
2021/09/09 07:15:34;;;;;;;25.25;17.52;;;;;;;18.97;66.79;100886.84;4973142;28;20212;-61
2021/09/09 07:18:02;;;;;;;23.58;17.13;;;;;;;18.99;66.68;100882.63;4973301;28;20051;-60
2021/09/09 07:20:29;;;;;;;24.25;17.05;;;;;;;19.00;66.62;100894.47;4973525;28;20502;-61
2021/09/09 07:22:57;;;;;;;23.35;17.92;;;;;;;18.98;66.57;100883.78;4973532;28;20126;-61
2021/09/09 07:25:25;;;;;;;19.63;14.75;;;;;;;18.98;66.63;100886.53;4973467;28;20086;-61
2021/09/09 07:27:54;;;;;;;24.30;17.58;;;;;;;18.99;67.00;100888.16;4972693;28;20154;-61
2021/09/09 07:30:21;;;;;;;28.98;17.30;;;;;;;19.00;66.83;100889.78;4972538;28;20449;-59
2021/09/09 07:32:50;;;;;;;20.63;15.40;;;;;;;19.04;66.91;100884.44;4992892;28;20485;-61
2021/09/09 07:35:18;;;;;;;23.20;17.45;;;;;;;19.06;66.67;100888.47;4992752;28;20122;-60
2021/09/09 07:37:46;;;;;;;20.30;14.50;;;;;;;19.09;66.67;100876.78;4992783;28;20442;-60
2021/09/09 07:40:14;;;;;;;27.42;16.63;;;;;;;19.13;66.71;100877.75;4992693;28;20118;-60
2021/09/09 07:42:42;;;;;;;23.05;15.43;;;;;;;19.18;66.50;100887.03;4992325;28;20034;-60
2021/09/09 07:45:10;;;;;;;26.73;16.98;;;;;;;19.21;66.49;100883.63;4992509;28;20404;-61
2021/09/09 07:47:38;;;;;;;21.20;14.00;;;;;;;19.23;66.47;100875.81;4990803;28;20100;-60
2021/09/09 07:50:08;;;;;;;25.75;16.48;;;;;;;19.25;66.67;100879.06;4992803;28;20053;-60
2021/09/09 07:52:41;;;;;;;23.20;17.30;;;;;;;19.26;66.70;100875.16;4977741;28;20057;-60
2021/09/09 07:55:09;;;;;;;21.00;15.90;;;;;;;19.29;66.59;100877.25;4992407;28;20490;-60
2021/09/09 07:57:38;;;;;;;26.55;17.88;;;;;;;19.30;66.84;100871.44;4991950;28;20387;-60
2021/09/09 08:00:07;;;;;;;24.00;15.20;;;;;;;19.34;66.76;100872.41;4990770;28;20042;-61
2021/09/09 08:02:40;;;;;;;24.58;16.60;;;;;;;19.37;67.08;100873.72;4992177;28;20073;-61
2021/09/09 08:05:08;;;;;;;46.58;19.52;;;;;;;19.39;67.16;100873.38;4991274;28;20071;-60
2021/09/09 08:07:45;;;;;;;30.75;14.73;;;;;;;19.41;67.18;100880.22;4992808;28;20089;-61
2021/09/09 08:10:15;;;;;;;31.55;17.52;;;;;;;19.44;67.14;100876.78;4966122;28;20050;-61
2021/09/09 08:12:43;;;;;;;24.08;16.20;;;;;;;19.46;67.32;100885.56;4990407;28;20427;-60
2021/09/09 08:15:12;;;;;;;21.55;14.25;;;;;;;19.50;67.29;100886.53;4965565;28;20050;-60
2021/09/09 08:17:40;;;;;;;22.65;14.45;;;;;;;19.52;67.51;100884.25;4992536;28;20050;-60
2021/09/09 08:20:09;;;;;;;24.15;16.55;;;;;;;19.59;67.73;100892.84;4992470;28;20046;-59
2021/09/09 08:22:38;;;;;;;19.58;14.27;;;;;;;19.64;68.07;100885.53;4991023;28;20042;-58
2021/09/09 08:25:08;;;;;;;22.30;17.85;;;;;;;19.65;68.40;100882.47;4991610;28;20045;-58
2021/09/09 08:27:36;;;;;;;24.50;13.02;;;;;;;19.67;67.98;100882.13;4991029;28;20080;-58
2021/09/09 08:30:04;;;;;;;21.25;13.23;;;;;;;19.72;67.88;100890.25;4992055;28;20454;-58
2021/09/09 08:32:33;;;;;;;26.52;18.00;;;;;;;19.78;68.19;100894.50;4992662;28;20057;-55
2021/09/09 08:35:00;;;;;;;20.92;13.23;;;;;;;19.79;67.90;100893.34;4992821;28;20053;-58
2021/09/09 08:37:28;;;;;;;23.75;13.23;;;;;;;19.85;67.80;100894.81;4993542;28;20042;-60
2021/09/09 08:40:28;;;;;;;25.30;15.55;;;;;;;19.97;67.45;100894.94;4992609;28;20121;-59
2021/09/09 08:42:55;;;;;;;25.63;15.30;;;;;;;20.03;67.84;100889.22;4958696;28;20042;-58
2021/09/09 08:45:23;;;;;;;21.75;15.80;;;;;;;20.00;68.00;100894.25;4984035;28;20157;-59
2021/09/09 08:47:51;;;;;;;21.92;16.75;;;;;;;19.97;68.39;100897.69;4992083;28;20039;-59
2021/09/09 08:50:19;;;;;;;27.05;13.95;;;;;;;20.01;68.34;100917.19;4992087;28;20042;-59
2021/09/09 08:52:49;;;;;;;30.70;16.70;;;;;;;20.07;68.68;100921.41;4992654;28;20052;-58
2021/09/09 08:55:19;;;;;;;28.77;17.17;;;;;;;20.13;68.95;100908.22;4990607;28;20125;-60
2021/09/09 08:57:46;;;;;;;22.67;15.85;;;;;;;20.15;68.87;100911.47;4991561;28;20042;-59
2021/09/09 09:00:15;;;;;;;24.45;16.33;;;;;;;20.17;68.85;100903.66;4995558;28;20030;-59
2021/09/09 09:03:09;;;;;;;24.63;16.52;;;;;;;20.18;69.29;100903.31;4994186;28;20074;-58
2021/09/09 09:05:39;;;;;;;28.10;16.63;;;;;;;20.21;68.70;100897.13;4992436;28;20082;-59
2021/09/09 09:08:06;;;;;;;31.23;15.32;;;;;;;20.27;68.60;100903.28;4995331;28;20129;-59
2021/09/09 09:10:34;;;;;;;20.48;13.88;;;;;;;20.29;68.75;100901.00;4995018;28;20053;-55
2021/09/09 09:13:02;;;;;;;22.63;15.85;;;;;;;20.30;69.41;100907.31;4995268;28;20046;-59
2021/09/09 09:15:32;;;;;;;24.48;16.02;;;;;;;20.32;70.04;100894.78;4994124;28;20394;-58
2021/09/09 09:18:06;;;;;;;23.70;16.95;;;;;;;20.39;69.88;100899.81;4995108;28;20049;-59
2021/09/09 09:20:52;;;;;;;26.40;16.15;;;;;;;20.46;69.27;100896.53;4995359;28;20042;-56
2021/09/09 09:23:21;;;;;;;19.85;13.82;;;;;;;20.48;68.78;100892.28;4994605;28;20584;-59
2021/09/09 09:26:01;;;;;;;22.15;15.38;;;;;;;20.50;68.83;100900.25;4994628;28;20050;-57
2021/09/09 09:28:46;;;;;;;22.50;16.77;;;;;;;20.52;69.31;100893.25;4994761;28;20043;-58
2021/09/09 09:31:20;;;;;;;23.33;16.92;;;;;;;20.54;69.38;100896.50;4994759;28;20058;-58
2021/09/09 09:33:56;;;;;;;26.45;17.73;;;;;;;20.57;69.69;100890.31;4993781;28;20038;-59
2021/09/09 09:36:40;;;;;;;23.95;14.60;;;;;;;20.60;68.79;100899.91;4994998;28;20041;-59
2021/09/09 09:39:24;;;;;;;23.35;14.55;;;;;;;20.65;69.31;100888.63;4992998;28;20049;-58
2021/09/09 09:42:04;;;;;;;25.95;15.05;;;;;;;20.68;68.66;100895.47;4994819;28;20082;-57
2021/09/09 09:44:45;;;;;;;25.52;14.02;;;;;;;20.75;68.62;100902.09;4994687;28;20053;-54
2021/09/09 09:47:21;;;;;;;25.08;12.48;;;;;;;20.82;68.01;100890.47;4994537;28;20081;-57
2021/09/09 09:49:55;;;;;;;30.55;21.73;;;;;;;20.91;69.68;100885.69;4970045;28;20511;-59
2021/09/09 09:52:29;;;;;;;24.63;13.57;;;;;;;20.98;67.48;100887.94;4994121;28;20050;-57
2021/09/09 09:54:59;;;;;;;27.55;16.85;;;;;;;21.00;68.15;100880.13;4994080;28;20122;-59
2021/09/09 09:57:29;;;;;;;23.77;17.45;;;;;;;21.00;68.69;100885.66;4993414;28;20038;-58
2021/09/09 09:59:56;;;;;;;21.50;11.63;;;;;;;21.04;66.85;100894.88;4994419;28;20404;-60
2021/09/09 10:02:25;;;;;;;30.60;16.33;;;;;;;21.13;68.10;100903.16;4994352;28;20046;-59
2021/09/09 10:04:53;;;;;;;24.23;14.32;;;;;;;21.18;68.18;100906.53;4994424;28;20520;-59
2021/09/09 10:07:21;;;;;;;21.42;14.90;;;;;;;21.23;68.17;100897.19;4993153;28;20493;-64
2021/09/09 10:09:54;;;;;;;34.38;19.23;;;;;;;21.27;68.61;100896.19;4989376;28;20430;-61
2021/09/09 10:12:25;;;;;;;21.23;10.43;;;;;;;21.26;67.54;100893.75;4985381;28;20057;-60
2021/09/09 10:14:55;;;;;;;21.65;14.18;;;;;;;21.28;68.30;100899.75;4994473;28;20051;-67
2021/09/09 10:17:25;;;;;;;20.95;13.63;;;;;;;21.30;68.43;100899.44;4994330;28;20041;-62
2021/09/09 10:19:53;;;;;;;23.00;14.38;;;;;;;21.33;67.70;100899.53;4994136;28;20101;-61
2021/09/09 10:22:22;;;;;;;20.42;14.23;;;;;;;21.37;68.37;100899.69;4993939;28;20042;-61
2021/09/09 10:25:04;;;;;;;25.10;16.90;;;;;;;21.38;68.93;100896.59;4993687;28;20504;-61
2021/09/09 10:27:41;;;;;;;32.10;16.35;;;;;;;21.41;69.50;100907.03;4960733;28;20524;-59
2021/09/09 10:30:18;;;;;;;18.35;9.70;;;;;;;21.49;67.87;100902.53;4994116;28;20501;-61
2021/09/09 10:32:55;;;;;;;21.45;14.95;;;;;;;21.53;68.30;100903.50;4994258;28;20047;-60
2021/09/09 10:35:30;;;;;;;20.55;13.52;;;;;;;21.58;68.85;100894.97;4993815;28;20386;-61
2021/09/09 10:38:00;;;;;;;28.63;12.95;;;;;;;21.64;68.42;100899.13;4993553;28;20050;-61
2021/09/09 10:40:31;;;;;;;20.50;11.95;;;;;;;21.72;69.12;100893.84;4993529;28;20069;-60
2021/09/09 10:43:04;;;;;;;24.30;13.68;;;;;;;21.75;68.84;100887.63;4994011;28;20341;-60
2021/09/09 10:45:34;;;;;;;20.98;12.52;;;;;;;21.77;68.69;100901.94;4993623;28;20073;-61
2021/09/09 10:48:21;;;;;;;24.25;16.10;;;;;;;21.81;68.54;100889.03;4773947;28;10001179;-61
2021/09/09 10:51:12;;;;;;;21.95;13.65;;;;;;;21.85;68.61;100887.19;4982598;28;20254;-61
2021/09/09 10:53:56;;;;;;;20.30;13.57;;;;;;;21.89;68.54;100896.44;4950270;29;20569;-61
2021/09/09 10:56:35;;;;;;;23.33;16.10;;;;;;;21.95;68.62;100897.03;4950024;29;20474;-62
2021/09/09 10:59:14;;;;;;;25.08;16.42;;;;;;;21.99;68.40;100904.31;4951396;29;20620;-60
2021/09/09 11:01:44;;;;;;;34.88;17.05;;;;;;;22.01;68.67;100907.56;4949510;29;20043;-55
2021/09/09 11:04:34;;;;;;;22.25;15.68;;;;;;;22.04;68.39;100894.97;4950040;28;20065;-55
2021/09/09 11:07:03;;;;;;;23.63;14.57;;;;;;;22.05;68.99;100899.34;4949614;29;20613;-56
2021/09/09 11:09:31;;;;;;;17.88;13.55;;;;;;;22.11;69.05;100904.34;4949305;29;20063;-61
2021/09/09 11:12:03;;;;;;;18.23;12.55;;;;;;;22.15;68.59;100903.66;4940173;29;20051;-60
2021/09/09 11:14:34;;;;;;;20.02;12.52;;;;;;;22.23;69.29;100902.78;4930961;29;20490;-60
2021/09/09 11:17:01;;;;;;;19.73;11.88;;;;;;;22.29;68.21;100895.84;4930360;28;20055;-60
2021/09/09 11:19:29;;;;;;;21.67;12.98;;;;;;;22.32;68.35;100904.28;4930472;29;20560;-61